Terminal Aerodrome Forecast
Issued by NWS

Home | Current Version | Previous Version | Text Only | Print | Product List | Glossary On
Versions: 1 2 3 4 5 6 7 8 9 10 11 12 13 14
503
FTUS46 KMTR 060529
TAFSNS
TAF
KSNS 060529Z 0606/0706 29006KT P6SM SCT015 BKN080
     FM060800 23006KT P6SM BKN012
     FM061700 27008KT P6SM -SHRA BKN025 OVC050
     FM062100 29008KT P6SM VCSH BKN035 BKN060
     FM070400 29004KT P6SM BKN060=

USA.gov is the U.S. government's official web portal to all federal, state and local government web resources and services.